sensor_id;sensor_type;location;lat;lon;timestamp;P1;durP1;ratioP1;P2;durP2;ratioP2
74674;SDS011;63200;48.810;12.352;2024-02-21T00:00:36;15.88;;;4.00;;
74674;SDS011;63200;48.810;12.352;2024-02-21T00:03:03;9.90;;;3.63;;
74674;SDS011;63200;48.810;12.352;2024-02-21T00:05:29;13.55;;;3.50;;
74674;SDS011;63200;48.810;12.352;2024-02-21T00:07:55;13.45;;;3.20;;
74674;SDS011;63200;48.810;12.352;2024-02-21T00:10:20;8.00;;;3.25;;
74674;SDS011;63200;48.810;12.352;2024-02-21T00:12:45;10.43;;;3.50;;
74674;SDS011;63200;48.810;12.352;2024-02-21T00:15:11;10.80;;;3.90;;
74674;SDS011;63200;48.810;12.352;2024-02-21T00:17:36;10.55;;;3.20;;
74674;SDS011;63200;48.810;12.352;2024-02-21T00:20:02;12.77;;;3.28;;
74674;SDS011;63200;48.810;12.352;2024-02-21T00:22:27;11.93;;;3.20;;
74674;SDS011;63200;48.810;12.352;2024-02-21T00:24:56;10.48;;;3.20;;
74674;SDS011;63200;48.810;12.352;2024-02-21T00:27:23;9.63;;;3.33;;
74674;SDS011;63200;48.810;12.352;2024-02-21T00:29:48;4.82;;;2.80;;
74674;SDS011;63200;48.810;12.352;2024-02-21T00:32:13;9.85;;;2.83;;
74674;SDS011;63200;48.810;12.352;2024-02-21T00:34:39;10.70;;;3.10;;
74674;SDS011;63200;48.810;12.352;2024-02-21T00:37:04;15.15;;;3.30;;
74674;SDS011;63200;48.810;12.352;2024-02-21T00:39:29;5.53;;;3.08;;
74674;SDS011;63200;48.810;12.352;2024-02-21T00:41:55;9.50;;;3.17;;
74674;SDS011;63200;48.810;12.352;2024-02-21T00:44:20;6.97;;;3.15;;
74674;SDS011;63200;48.810;12.352;2024-02-21T00:46:45;11.25;;;3.20;;
74674;SDS011;63200;48.810;12.352;2024-02-21T00:49:12;6.10;;;2.65;;
74674;SDS011;63200;48.810;12.352;2024-02-21T00:51:37;12.98;;;3.28;;
74674;SDS011;63200;48.810;12.352;2024-02-21T00:54:02;8.00;;;2.70;;
74674;SDS011;63200;48.810;12.352;2024-02-21T00:56:28;8.23;;;2.90;;
74674;SDS011;63200;48.810;12.352;2024-02-21T00:58:54;9.43;;;3.10;;
74674;SDS011;63200;48.810;12.352;2024-02-21T01:01:23;9.73;;;3.47;;
74674;SDS011;63200;48.810;12.352;2024-02-21T01:03:49;11.55;;;2.78;;
74674;SDS011;63200;48.810;12.352;2024-02-21T01:06:16;10.98;;;4.20;;
74674;SDS011;63200;48.810;12.352;2024-02-21T01:08:41;7.40;;;2.95;;
74674;SDS011;63200;48.810;12.352;2024-02-21T01:11:07;8.65;;;2.97;;
74674;SDS011;63200;48.810;12.352;2024-02-21T01:13:32;10.50;;;3.40;;
74674;SDS011;63200;48.810;12.352;2024-02-21T01:15:58;10.68;;;3.10;;
74674;SDS011;63200;48.810;12.352;2024-02-21T01:18:23;6.75;;;3.25;;
74674;SDS011;63200;48.810;12.352;2024-02-21T01:20:48;12.20;;;3.40;;
74674;SDS011;63200;48.810;12.352;2024-02-21T01:23:13;10.65;;;3.60;;
74674;SDS011;63200;48.810;12.352;2024-02-21T01:25:39;9.43;;;3.17;;
74674;SDS011;63200;48.810;12.352;2024-02-21T01:28:04;6.10;;;2.70;;
74674;SDS011;63200;48.810;12.352;2024-02-21T01:30:30;7.65;;;3.28;;
74674;SDS011;63200;48.810;12.352;2024-02-21T01:32:55;10.90;;;2.85;;
74674;SDS011;63200;48.810;12.352;2024-02-21T01:35:20;11.82;;;3.25;;
74674;SDS011;63200;48.810;12.352;2024-02-21T01:37:45;7.13;;;3.10;;
74674;SDS011;63200;48.810;12.352;2024-02-21T01:40:11;7.72;;;2.95;;
74674;SDS011;63200;48.810;12.352;2024-02-21T01:42:39;9.20;;;3.45;;
74674;SDS011;63200;48.810;12.352;2024-02-21T01:45:08;9.43;;;3.38;;
74674;SDS011;63200;48.810;12.352;2024-02-21T01:47:33;4.00;;;3.05;;
74674;SDS011;63200;48.810;12.352;2024-02-21T01:49:59;6.38;;;3.22;;
74674;SDS011;63200;48.810;12.352;2024-02-21T01:52:26;9.43;;;3.42;;
74674;SDS011;63200;48.810;12.352;2024-02-21T01:54:53;8.77;;;2.95;;
74674;SDS011;63200;48.810;12.352;2024-02-21T01:57:18;7.85;;;2.88;;
74674;SDS011;63200;48.810;12.352;2024-02-21T01:59:43;6.97;;;2.80;;
74674;SDS011;63200;48.810;12.352;2024-02-21T02:02:09;7.93;;;3.08;;
74674;SDS011;63200;48.810;12.352;2024-02-21T02:04:34;8.18;;;2.78;;
74674;SDS011;63200;48.810;12.352;2024-02-21T02:07:01;12.60;;;3.05;;
74674;SDS011;63200;48.810;12.352;2024-02-21T02:09:27;4.85;;;2.63;;
74674;SDS011;63200;48.810;12.352;2024-02-21T02:11:53;12.85;;;3.17;;
74674;SDS011;63200;48.810;12.352;2024-02-21T02:14:18;8.18;;;2.78;;
74674;SDS011;63200;48.810;12.352;2024-02-21T02:16:46;13.07;;;2.90;;
74674;SDS011;63200;48.810;12.352;2024-02-21T02:19:12;6.93;;;3.05;;
74674;SDS011;63200;48.810;12.352;2024-02-21T02:21:39;12.15;;;3.17;;
74674;SDS011;63200;48.810;12.352;2024-02-21T02:24:07;8.95;;;3.33;;
74674;SDS011;63200;48.810;12.352;2024-02-21T02:26:32;8.88;;;3.53;;
74674;SDS011;63200;48.810;12.352;2024-02-21T02:28:57;8.02;;;3.03;;
74674;SDS011;63200;48.810;12.352;2024-02-21T02:31:23;17.92;;;3.42;;
74674;SDS011;63200;48.810;12.352;2024-02-21T02:33:48;7.38;;;3.95;;
74674;SDS011;63200;48.810;12.352;2024-02-21T02:36:13;10.05;;;3.25;;
74674;SDS011;63200;48.810;12.352;2024-02-21T02:38:39;6.75;;;2.90;;
74674;SDS011;63200;48.810;12.352;2024-02-21T02:41:04;12.75;;;3.60;;
74674;SDS011;63200;48.810;12.352;2024-02-21T02:43:29;9.50;;;3.60;;
74674;SDS011;63200;48.810;12.352;2024-02-21T02:45:55;11.90;;;3.47;;
74674;SDS011;63200;48.810;12.352;2024-02-21T02:48:20;15.75;;;3.80;;
74674;SDS011;63200;48.810;12.352;2024-02-21T02:50:46;9.88;;;3.33;;
74674;SDS011;63200;48.810;12.352;2024-02-21T02:53:11;7.47;;;2.95;;
74674;SDS011;63200;48.810;12.352;2024-02-21T02:55:37;9.30;;;2.67;;
74674;SDS011;63200;48.810;12.352;2024-02-21T02:58:02;14.25;;;3.30;;
74674;SDS011;63200;48.810;12.352;2024-02-21T03:00:28;9.90;;;2.90;;
74674;SDS011;63200;48.810;12.352;2024-02-21T03:02:53;7.05;;;2.58;;
74674;SDS011;63200;48.810;12.352;2024-02-21T03:05:20;14.20;;;2.47;;
74674;SDS011;63200;48.810;12.352;2024-02-21T03:07:46;8.68;;;3.20;;
74674;SDS011;63200;48.810;12.352;2024-02-21T03:10:13;11.32;;;2.92;;
74674;SDS011;63200;48.810;12.352;2024-02-21T03:12:39;5.80;;;2.47;;
74674;SDS011;63200;48.810;12.352;2024-02-21T03:15:04;8.30;;;3.10;;
74674;SDS011;63200;48.810;12.352;2024-02-21T03:17:31;9.63;;;2.63;;
74674;SDS011;63200;48.810;12.352;2024-02-21T03:19:57;1.85;;;1.38;;
74674;SDS011;63200;48.810;12.352;2024-02-21T03:22:23;5.20;;;2.88;;
74674;SDS011;63200;48.810;12.352;2024-02-21T03:24:49;5.35;;;2.42;;
74674;SDS011;63200;48.810;12.352;2024-02-21T03:27:14;4.80;;;2.08;;
74674;SDS011;63200;48.810;12.352;2024-02-21T03:29:39;4.95;;;2.20;;
74674;SDS011;63200;48.810;12.352;2024-02-21T03:32:04;7.47;;;2.55;;
74674;SDS011;63200;48.810;12.352;2024-02-21T03:34:30;11.07;;;3.08;;
74674;SDS011;63200;48.810;12.352;2024-02-21T03:36:55;6.95;;;2.40;;
74674;SDS011;63200;48.810;12.352;2024-02-21T03:39:21;10.00;;;2.70;;
74674;SDS011;63200;48.810;12.352;2024-02-21T03:41:46;9.52;;;2.65;;
74674;SDS011;63200;48.810;12.352;2024-02-21T03:44:12;11.30;;;2.95;;
74674;SDS011;63200;48.810;12.352;2024-02-21T03:46:37;5.55;;;2.17;;
74674;SDS011;63200;48.810;12.352;2024-02-21T03:49:02;10.52;;;3.00;;
74674;SDS011;63200;48.810;12.352;2024-02-21T03:51:28;14.27;;;2.50;;
74674;SDS011;63200;48.810;12.352;2024-02-21T03:53:53;5.68;;;2.88;;
74674;SDS011;63200;48.810;12.352;2024-02-21T03:56:18;11.13;;;2.60;;
74674;SDS011;63200;48.810;12.352;2024-02-21T03:58:43;7.32;;;3.00;;
74674;SDS011;63200;48.810;12.352;2024-02-21T04:01:09;9.45;;;2.75;;
74674;SDS011;63200;48.810;12.352;2024-02-21T04:03:34;9.40;;;2.55;;
74674;SDS011;63200;48.810;12.352;2024-02-21T04:06:00;7.28;;;3.03;;
74674;SDS011;63200;48.810;12.352;2024-02-21T04:08:25;7.78;;;2.40;;
74674;SDS011;63200;48.810;12.352;2024-02-21T04:10:50;8.95;;;2.65;;
74674;SDS011;63200;48.810;12.352;2024-02-21T04:13:16;5.60;;;2.50;;
74674;SDS011;63200;48.810;12.352;2024-02-21T04:15:41;5.88;;;2.25;;
74674;SDS011;63200;48.810;12.352;2024-02-21T04:18:06;10.25;;;2.72;;
74674;SDS011;63200;48.810;12.352;2024-02-21T04:20:31;5.10;;;2.67;;
74674;SDS011;63200;48.810;12.352;2024-02-21T04:22:57;14.00;;;2.50;;
74674;SDS011;63200;48.810;12.352;2024-02-21T04:25:23;8.73;;;2.45;;
74674;SDS011;63200;48.810;12.352;2024-02-21T04:27:48;6.72;;;2.75;;
74674;SDS011;63200;48.810;12.352;2024-02-21T04:30:14;7.90;;;2.47;;
74674;SDS011;63200;48.810;12.352;2024-02-21T04:32:40;6.88;;;2.20;;
74674;SDS011;63200;48.810;12.352;2024-02-21T04:35:06;8.18;;;2.30;;
74674;SDS011;63200;48.810;12.352;2024-02-21T04:37:32;6.60;;;2.78;;
74674;SDS011;63200;48.810;12.352;2024-02-21T04:39:57;14.88;;;2.58;;
74674;SDS011;63200;48.810;12.352;2024-02-21T04:42:22;6.88;;;2.85;;
74674;SDS011;63200;48.810;12.352;2024-02-21T04:44:48;7.38;;;2.35;;
74674;SDS011;63200;48.810;12.352;2024-02-21T04:47:13;9.98;;;2.40;;
74674;SDS011;63200;48.810;12.352;2024-02-21T04:49:38;7.20;;;2.38;;
74674;SDS011;63200;48.810;12.352;2024-02-21T04:52:04;5.57;;;2.55;;
74674;SDS011;63200;48.810;12.352;2024-02-21T04:54:29;5.15;;;2.42;;
74674;SDS011;63200;48.810;12.352;2024-02-21T04:56:54;10.02;;;2.80;;
74674;SDS011;63200;48.810;12.352;2024-02-21T04:59:20;3.95;;;2.30;;
74674;SDS011;63200;48.810;12.352;2024-02-21T05:01:45;4.88;;;2.20;;
74674;SDS011;63200;48.810;12.352;2024-02-21T05:04:10;4.43;;;2.25;;
74674;SDS011;63200;48.810;12.352;2024-02-21T05:06:39;11.25;;;2.72;;
74674;SDS011;63200;48.810;12.352;2024-02-21T05:09:05;5.70;;;2.30;;
74674;SDS011;63200;48.810;12.352;2024-02-21T05:11:31;4.90;;;2.17;;
74674;SDS011;63200;48.810;12.352;2024-02-21T05:13:56;7.93;;;2.25;;
74674;SDS011;63200;48.810;12.352;2024-02-21T05:16:22;11.27;;;2.65;;
74674;SDS011;63200;48.810;12.352;2024-02-21T05:18:47;14.80;;;3.00;;
74674;SDS011;63200;48.810;12.352;2024-02-21T05:21:12;13.57;;;2.55;;
74674;SDS011;63200;48.810;12.352;2024-02-21T05:23:38;7.18;;;2.05;;
74674;SDS011;63200;48.810;12.352;2024-02-21T05:26:04;8.80;;;2.42;;
74674;SDS011;63200;48.810;12.352;2024-02-21T05:28:30;4.40;;;2.28;;
74674;SDS011;63200;48.810;12.352;2024-02-21T05:30:55;8.07;;;2.50;;
74674;SDS011;63200;48.810;12.352;2024-02-21T05:33:21;10.07;;;2.50;;
74674;SDS011;63200;48.810;12.352;2024-02-21T05:35:49;9.32;;;2.30;;
74674;SDS011;63200;48.810;12.352;2024-02-21T05:38:14;8.88;;;2.38;;
74674;SDS011;63200;48.810;12.352;2024-02-21T05:40:40;11.60;;;2.42;;
74674;SDS011;63200;48.810;12.352;2024-02-21T05:46:28;4.63;;;2.20;;
74674;SDS011;63200;48.810;12.352;2024-02-21T05:48:53;4.18;;;2.28;;
74674;SDS011;63200;48.810;12.352;2024-02-21T05:51:18;5.05;;;2.20;;
74674;SDS011;63200;48.810;12.352;2024-02-21T05:53:44;8.70;;;2.72;;
74674;SDS011;63200;48.810;12.352;2024-02-21T05:56:15;7.63;;;2.00;;
74674;SDS011;63200;48.810;12.352;2024-02-21T05:58:40;5.68;;;2.42;;
74674;SDS011;63200;48.810;12.352;2024-02-21T06:01:05;6.00;;;2.47;;
74674;SDS011;63200;48.810;12.352;2024-02-21T06:03:32;5.10;;;2.30;;
74674;SDS011;63200;48.810;12.352;2024-02-21T06:05:58;5.88;;;2.08;;
74674;SDS011;63200;48.810;12.352;2024-02-21T06:08:23;5.10;;;2.40;;
74674;SDS011;63200;48.810;12.352;2024-02-21T06:10:49;7.60;;;2.10;;
74674;SDS011;63200;48.810;12.352;2024-02-21T06:13:17;2.67;;;2.03;;
74674;SDS011;63200;48.810;12.352;2024-02-21T06:15:42;4.30;;;2.35;;
74674;SDS011;63200;48.810;12.352;2024-02-21T06:18:07;9.57;;;2.58;;
74674;SDS011;63200;48.810;12.352;2024-02-21T06:20:32;4.38;;;2.28;;
74674;SDS011;63200;48.810;12.352;2024-02-21T06:22:58;5.10;;;2.20;;
74674;SDS011;63200;48.810;12.352;2024-02-21T06:25:23;6.05;;;2.47;;
74674;SDS011;63200;48.810;12.352;2024-02-21T06:27:48;10.20;;;2.55;;
74674;SDS011;63200;48.810;12.352;2024-02-21T06:30:13;3.25;;;2.10;;
74674;SDS011;63200;48.810;12.352;2024-02-21T06:32:39;8.35;;;2.22;;
74674;SDS011;63200;48.810;12.352;2024-02-21T06:35:04;8.63;;;2.38;;
74674;SDS011;63200;48.810;12.352;2024-02-21T06:37:30;8.27;;;2.65;;
74674;SDS011;63200;48.810;12.352;2024-02-21T06:39:57;7.15;;;2.40;;
74674;SDS011;63200;48.810;12.352;2024-02-21T06:42:24;7.22;;;2.53;;
74674;SDS011;63200;48.810;12.352;2024-02-21T06:44:50;9.02;;;2.55;;
74674;SDS011;63200;48.810;12.352;2024-02-21T06:47:15;6.95;;;2.50;;
74674;SDS011;63200;48.810;12.352;2024-02-21T06:49:40;4.43;;;2.00;;
74674;SDS011;63200;48.810;12.352;2024-02-21T06:52:06;8.93;;;2.60;;
74674;SDS011;63200;48.810;12.352;2024-02-21T06:54:32;9.00;;;3.03;;
74674;SDS011;63200;48.810;12.352;2024-02-21T06:56:57;5.40;;;2.33;;
74674;SDS011;63200;48.810;12.352;2024-02-21T06:59:22;3.80;;;2.00;;
74674;SDS011;63200;48.810;12.352;2024-02-21T07:01:48;4.97;;;2.05;;
74674;SDS011;63200;48.810;12.352;2024-02-21T07:04:14;6.57;;;2.00;;
74674;SDS011;63200;48.810;12.352;2024-02-21T07:06:39;6.07;;;2.25;;
74674;SDS011;63200;48.810;12.352;2024-02-21T07:09:05;12.52;;;2.78;;
74674;SDS011;63200;48.810;12.352;2024-02-21T07:11:30;5.18;;;2.25;;
74674;SDS011;63200;48.810;12.352;2024-02-21T07:13:55;9.80;;;2.63;;
74674;SDS011;63200;48.810;12.352;2024-02-21T07:16:20;3.88;;;2.47;;
74674;SDS011;63200;48.810;12.352;2024-02-21T07:18:46;8.35;;;2.85;;
74674;SDS011;63200;48.810;12.352;2024-02-21T07:21:11;9.40;;;2.88;;
74674;SDS011;63200;48.810;12.352;2024-02-21T07:23:40;10.35;;;3.95;;
74674;SDS011;63200;48.810;12.352;2024-02-21T07:26:06;7.57;;;2.63;;
74674;SDS011;63200;48.810;12.352;2024-02-21T07:28:31;5.72;;;2.78;;
74674;SDS011;63200;48.810;12.352;2024-02-21T07:30:58;5.55;;;2.50;;
74674;SDS011;63200;48.810;12.352;2024-02-21T07:33:24;7.90;;;3.10;;
74674;SDS011;63200;48.810;12.352;2024-02-21T07:35:49;5.72;;;2.60;;
74674;SDS011;63200;48.810;12.352;2024-02-21T07:38:14;11.05;;;2.92;;
74674;SDS011;63200;48.810;12.352;2024-02-21T07:40:39;9.68;;;2.90;;
74674;SDS011;63200;48.810;12.352;2024-02-21T07:43:05;4.10;;;2.65;;
74674;SDS011;63200;48.810;12.352;2024-02-21T07:45:30;7.03;;;2.55;;
74674;SDS011;63200;48.810;12.352;2024-02-21T07:47:55;12.60;;;4.03;;
74674;SDS011;63200;48.810;12.352;2024-02-21T07:50:21;6.78;;;2.50;;
74674;SDS011;63200;48.810;12.352;2024-02-21T07:52:46;4.05;;;2.50;;
74674;SDS011;63200;48.810;12.352;2024-02-21T07:55:11;5.80;;;2.65;;
74674;SDS011;63200;48.810;12.352;2024-02-21T07:57:36;6.13;;;2.33;;
74674;SDS011;63200;48.810;12.352;2024-02-21T08:00:02;6.25;;;2.70;;
74674;SDS011;63200;48.810;12.352;2024-02-21T08:02:29;6.82;;;2.67;;
74674;SDS011;63200;48.810;12.352;2024-02-21T08:04:54;5.00;;;2.58;;
74674;SDS011;63200;48.810;12.352;2024-02-21T08:07:20;7.47;;;2.55;;
74674;SDS011;63200;48.810;12.352;2024-02-21T08:09:45;4.43;;;2.90;;
74674;SDS011;63200;48.810;12.352;2024-02-21T08:12:10;9.50;;;2.72;;
74674;SDS011;63200;48.810;12.352;2024-02-21T08:14:35;7.65;;;2.90;;
74674;SDS011;63200;48.810;12.352;2024-02-21T08:17:01;5.35;;;2.40;;
74674;SDS011;63200;48.810;12.352;2024-02-21T08:19:26;12.80;;;3.08;;
74674;SDS011;63200;48.810;12.352;2024-02-21T08:21:51;6.55;;;2.88;;
74674;SDS011;63200;48.810;12.352;2024-02-21T08:24:16;5.35;;;2.53;;
74674;SDS011;63200;48.810;12.352;2024-02-21T08:26:42;10.30;;;2.50;;
74674;SDS011;63200;48.810;12.352;2024-02-21T08:29:09;4.32;;;2.40;;
74674;SDS011;63200;48.810;12.352;2024-02-21T08:31:35;12.35;;;2.85;;
74674;SDS011;63200;48.810;12.352;2024-02-21T08:34:00;5.57;;;2.55;;
74674;SDS011;63200;48.810;12.352;2024-02-21T08:36:32;6.25;;;2.67;;
74674;SDS011;63200;48.810;12.352;2024-02-21T08:38:58;8.55;;;2.65;;
74674;SDS011;63200;48.810;12.352;2024-02-21T08:41:24;5.00;;;2.25;;
74674;SDS011;63200;48.810;12.352;2024-02-21T08:43:50;4.80;;;2.33;;
74674;SDS011;63200;48.810;12.352;2024-02-21T08:46:16;3.83;;;2.40;;
74674;SDS011;63200;48.810;12.352;2024-02-21T08:48:42;7.97;;;2.13;;
74674;SDS011;63200;48.810;12.352;2024-02-21T08:51:08;4.90;;;2.20;;
74674;SDS011;63200;48.810;12.352;2024-02-21T08:53:33;6.03;;;2.20;;
74674;SDS011;63200;48.810;12.352;2024-02-21T08:55:58;5.18;;;1.98;;
74674;SDS011;63200;48.810;12.352;2024-02-21T08:58:24;4.35;;;2.22;;
74674;SDS011;63200;48.810;12.352;2024-02-21T09:00:51;6.70;;;2.13;;
74674;SDS011;63200;48.810;12.352;2024-02-21T09:03:17;2.55;;;1.70;;
74674;SDS011;63200;48.810;12.352;2024-02-21T09:05:44;6.88;;;2.03;;
74674;SDS011;63200;48.810;12.352;2024-02-21T09:08:10;6.30;;;2.38;;
74674;SDS011;63200;48.810;12.352;2024-02-21T09:10:35;7.78;;;1.95;;
74674;SDS011;63200;48.810;12.352;2024-02-21T09:13:00;4.13;;;1.70;;
74674;SDS011;63200;48.810;12.352;2024-02-21T09:15:28;5.57;;;1.90;;
74674;SDS011;63200;48.810;12.352;2024-02-21T09:17:53;12.30;;;2.33;;
74674;SDS011;63200;48.810;12.352;2024-02-21T09:20:19;4.80;;;1.60;;
74674;SDS011;63200;48.810;12.352;2024-02-21T09:22:44;6.25;;;1.77;;
74674;SDS011;63200;48.810;12.352;2024-02-21T09:25:10;8.75;;;2.00;;
74674;SDS011;63200;48.810;12.352;2024-02-21T09:27:37;6.25;;;2.35;;
74674;SDS011;63200;48.810;12.352;2024-02-21T09:30:03;6.10;;;1.90;;
74674;SDS011;63200;48.810;12.352;2024-02-21T09:32:30;6.93;;;2.00;;
74674;SDS011;63200;48.810;12.352;2024-02-21T09:34:55;2.95;;;1.70;;
74674;SDS011;63200;48.810;12.352;2024-02-21T09:37:20;5.72;;;2.15;;
74674;SDS011;63200;48.810;12.352;2024-02-21T09:39:46;2.92;;;1.85;;
74674;SDS011;63200;48.810;12.352;2024-02-21T09:42:12;2.13;;;1.70;;
74674;SDS011;63200;48.810;12.352;2024-02-21T09:44:41;5.57;;;1.75;;
74674;SDS011;63200;48.810;12.352;2024-02-21T09:47:31;6.00;;;2.28;;
74674;SDS011;63200;48.810;12.352;2024-02-21T09:50:08;4.68;;;1.80;;
74674;SDS011;63200;48.810;12.352;2024-02-21T09:52:35;5.50;;;1.80;;
74674;SDS011;63200;48.810;12.352;2024-02-21T09:55:02;3.40;;;1.65;;
74674;SDS011;63200;48.810;12.352;2024-02-21T09:57:29;3.63;;;2.10;;
74674;SDS011;63200;48.810;12.352;2024-02-21T09:59:56;4.90;;;1.80;;
74674;SDS011;63200;48.810;12.352;2024-02-21T10:02:24;7.32;;;2.15;;
74674;SDS011;63200;48.810;12.352;2024-02-21T10:04:49;8.13;;;1.80;;
74674;SDS011;63200;48.810;12.352;2024-02-21T10:07:14;7.13;;;2.08;;
74674;SDS011;63200;48.810;12.352;2024-02-21T10:09:40;3.53;;;1.80;;
74674;SDS011;63200;48.810;12.352;2024-02-21T10:12:10;4.80;;;1.67;;
74674;SDS011;63200;48.810;12.352;2024-02-21T10:14:37;5.28;;;1.70;;
74674;SDS011;63200;48.810;12.352;2024-02-21T10:17:03;5.20;;;1.73;;
74674;SDS011;63200;48.810;12.352;2024-02-21T10:19:30;2.28;;;1.60;;
74674;SDS011;63200;48.810;12.352;2024-02-21T10:22:02;5.10;;;1.85;;
74674;SDS011;63200;48.810;12.352;2024-02-21T10:24:30;4.88;;;2.00;;
74674;SDS011;63200;48.810;12.352;2024-02-21T10:27:06;5.30;;;1.80;;
74674;SDS011;63200;48.810;12.352;2024-02-21T10:29:34;8.90;;;1.85;;
74674;SDS011;63200;48.810;12.352;2024-02-21T10:32:06;8.05;;;1.73;;
74674;SDS011;63200;48.810;12.352;2024-02-21T10:34:34;5.72;;;1.92;;
74674;SDS011;63200;48.810;12.352;2024-02-21T10:37:04;4.72;;;1.90;;
74674;SDS011;63200;48.810;12.352;2024-02-21T10:39:34;4.32;;;1.92;;
74674;SDS011;63200;48.810;12.352;2024-02-21T10:42:03;5.45;;;2.00;;
74674;SDS011;63200;48.810;12.352;2024-02-21T10:44:29;5.00;;;2.00;;
74674;SDS011;63200;48.810;12.352;2024-02-21T10:46:56;4.05;;;1.80;;
74674;SDS011;63200;48.810;12.352;2024-02-21T10:49:22;5.57;;;2.10;;
74674;SDS011;63200;48.810;12.352;2024-02-21T10:52:14;5.32;;;2.10;;
74674;SDS011;63200;48.810;12.352;2024-02-21T10:54:47;4.25;;;2.10;;
74674;SDS011;63200;48.810;12.352;2024-02-21T10:57:18;3.15;;;2.35;;
74674;SDS011;63200;48.810;12.352;2024-02-21T10:59:47;4.78;;;1.95;;
74674;SDS011;63200;48.810;12.352;2024-02-21T11:02:13;4.15;;;2.00;;
74674;SDS011;63200;48.810;12.352;2024-02-21T11:04:40;6.80;;;2.08;;
74674;SDS011;63200;48.810;12.352;2024-02-21T11:07:06;6.75;;;2.00;;
74674;SDS011;63200;48.810;12.352;2024-02-21T11:09:32;5.85;;;1.77;;
74674;SDS011;63200;48.810;12.352;2024-02-21T11:11:58;4.43;;;1.80;;
74674;SDS011;63200;48.810;12.352;2024-02-21T11:14:27;2.83;;;1.67;;
74674;SDS011;63200;48.810;12.352;2024-02-21T11:16:53;5.53;;;2.00;;
74674;SDS011;63200;48.810;12.352;2024-02-21T11:19:19;4.38;;;1.92;;
74674;SDS011;63200;48.810;12.352;2024-02-21T11:21:45;4.95;;;1.75;;
74674;SDS011;63200;48.810;12.352;2024-02-21T11:24:10;2.75;;;2.05;;
74674;SDS011;63200;48.810;12.352;2024-02-21T11:26:37;2.90;;;1.90;;
74674;SDS011;63200;48.810;12.352;2024-02-21T11:29:03;3.88;;;1.80;;
74674;SDS011;63200;48.810;12.352;2024-02-21T11:31:42;6.38;;;2.20;;
74674;SDS011;63200;48.810;12.352;2024-02-21T11:34:09;5.93;;;2.00;;
74674;SDS011;63200;48.810;12.352;2024-02-21T11:36:50;3.55;;;1.77;;
74674;SDS011;63200;48.810;12.352;2024-02-21T11:39:21;4.13;;;2.20;;
74674;SDS011;63200;48.810;12.352;2024-02-21T11:42:03;5.20;;;1.85;;
74674;SDS011;63200;48.810;12.352;2024-02-21T11:44:29;5.97;;;2.03;;
74674;SDS011;63200;48.810;12.352;2024-02-21T11:46:54;2.53;;;1.92;;
74674;SDS011;63200;48.810;12.352;2024-02-21T11:49:20;5.22;;;1.70;;
74674;SDS011;63200;48.810;12.352;2024-02-21T11:51:45;5.45;;;1.95;;
74674;SDS011;63200;48.810;12.352;2024-02-21T11:54:11;5.32;;;2.22;;
74674;SDS011;63200;48.810;12.352;2024-02-21T11:56:38;5.50;;;2.03;;
74674;SDS011;63200;48.810;12.352;2024-02-21T11:59:03;8.07;;;2.03;;
74674;SDS011;63200;48.810;12.352;2024-02-21T12:01:30;2.72;;;1.85;;
74674;SDS011;63200;48.810;12.352;2024-02-21T12:03:56;3.17;;;2.00;;
74674;SDS011;63200;48.810;12.352;2024-02-21T12:06:21;1.52;;;1.42;;
74674;SDS011;63200;48.810;12.352;2024-02-21T12:08:47;3.83;;;1.45;;
74674;SDS011;63200;48.810;12.352;2024-02-21T12:11:19;6.35;;;1.60;;
74674;SDS011;63200;48.810;12.352;2024-02-21T12:14:08;3.67;;;1.63;;
74674;SDS011;63200;48.810;12.352;2024-02-21T12:16:34;2.63;;;1.63;;
74674;SDS011;63200;48.810;12.352;2024-02-21T12:19:01;4.10;;;1.52;;
74674;SDS011;63200;48.810;12.352;2024-02-21T12:21:33;4.05;;;1.50;;
74674;SDS011;63200;48.810;12.352;2024-02-21T12:24:14;2.80;;;1.40;;
74674;SDS011;63200;48.810;12.352;2024-02-21T12:26:40;5.53;;;1.40;;
74674;SDS011;63200;48.810;12.352;2024-02-21T12:29:05;3.03;;;1.33;;
74674;SDS011;63200;48.810;12.352;2024-02-21T12:31:31;3.45;;;1.30;;
74674;SDS011;63200;48.810;12.352;2024-02-21T12:33:56;2.03;;;1.25;;
74674;SDS011;63200;48.810;12.352;2024-02-21T12:36:21;1.83;;;1.30;;
74674;SDS011;63200;48.810;12.352;2024-02-21T12:38:47;2.25;;;1.35;;
74674;SDS011;63200;48.810;12.352;2024-02-21T12:41:13;4.43;;;1.50;;
74674;SDS011;63200;48.810;12.352;2024-02-21T12:43:39;2.05;;;1.40;;
74674;SDS011;63200;48.810;12.352;2024-02-21T12:46:04;2.58;;;1.50;;
74674;SDS011;63200;48.810;12.352;2024-02-21T12:48:31;2.45;;;1.30;;
74674;SDS011;63200;48.810;12.352;2024-02-21T12:50:57;4.68;;;1.45;;
74674;SDS011;63200;48.810;12.352;2024-02-21T12:53:23;4.97;;;1.52;;
74674;SDS011;63200;48.810;12.352;2024-02-21T12:55:49;1.67;;;1.20;;
74674;SDS011;63200;48.810;12.352;2024-02-21T12:58:14;2.70;;;1.40;;
74674;SDS011;63200;48.810;12.352;2024-02-21T13:00:40;4.80;;;1.50;;
74674;SDS011;63200;48.810;12.352;2024-02-21T13:03:05;2.83;;;1.33;;
74674;SDS011;63200;48.810;12.352;2024-02-21T13:05:31;2.72;;;1.30;;
74674;SDS011;63200;48.810;12.352;2024-02-21T13:07:57;2.38;;;1.40;;
74674;SDS011;63200;48.810;12.352;2024-02-21T13:10:23;3.00;;;1.10;;
74674;SDS011;63200;48.810;12.352;2024-02-21T13:12:48;3.08;;;1.40;;
74674;SDS011;63200;48.810;12.352;2024-02-21T13:15:13;5.93;;;1.45;;
74674;SDS011;63200;48.810;12.352;2024-02-21T13:17:41;3.00;;;1.27;;
74674;SDS011;63200;48.810;12.352;2024-02-21T13:20:06;1.67;;;1.23;;
74674;SDS011;63200;48.810;12.352;2024-02-21T13:22:33;1.60;;;1.25;;
74674;SDS011;63200;48.810;12.352;2024-02-21T13:24:58;2.42;;;1.20;;
74674;SDS011;63200;48.810;12.352;2024-02-21T13:27:24;1.15;;;1.00;;
74674;SDS011;63200;48.810;12.352;2024-02-21T13:29:49;1.33;;;1.17;;
74674;SDS011;63200;48.810;12.352;2024-02-21T13:32:14;2.85;;;1.10;;
74674;SDS011;63200;48.810;12.352;2024-02-21T13:34:40;2.75;;;1.17;;
74674;SDS011;63200;48.810;12.352;2024-02-21T13:37:07;1.88;;;1.30;;
74674;SDS011;63200;48.810;12.352;2024-02-21T13:39:34;1.35;;;1.25;;
74674;SDS011;63200;48.810;12.352;2024-02-21T13:42:00;2.70;;;1.00;;
74674;SDS011;63200;48.810;12.352;2024-02-21T13:44:25;2.95;;;1.30;;
74674;SDS011;63200;48.810;12.352;2024-02-21T13:46:50;2.95;;;1.30;;
74674;SDS011;63200;48.810;12.352;2024-02-21T13:49:16;2.08;;;1.00;;
74674;SDS011;63200;48.810;12.352;2024-02-21T13:51:41;2.05;;;1.13;;
74674;SDS011;63200;48.810;12.352;2024-02-21T13:54:07;1.88;;;1.50;;
74674;SDS011;63200;48.810;12.352;2024-02-21T13:56:34;1.73;;;0.93;;
74674;SDS011;63200;48.810;12.352;2024-02-21T13:59:00;2.92;;;1.30;;
74674;SDS011;63200;48.810;12.352;2024-02-21T14:01:25;2.67;;;1.20;;
74674;SDS011;63200;48.810;12.352;2024-02-21T14:03:53;2.35;;;1.20;;
74674;SDS011;63200;48.810;12.352;2024-02-21T14:06:18;3.78;;;1.15;;
74674;SDS011;63200;48.810;12.352;2024-02-21T14:08:43;1.25;;;1.15;;
74674;SDS011;63200;48.810;12.352;2024-02-21T14:11:09;2.15;;;1.10;;
74674;SDS011;63200;48.810;12.352;2024-02-21T14:13:34;4.18;;;1.30;;
74674;SDS011;63200;48.810;12.352;2024-02-21T14:15:59;1.20;;;0.80;;
74674;SDS011;63200;48.810;12.352;2024-02-21T14:18:25;1.58;;;0.90;;
74674;SDS011;63200;48.810;12.352;2024-02-21T14:20:50;2.90;;;1.15;;
74674;SDS011;63200;48.810;12.352;2024-02-21T14:23:15;5.25;;;1.50;;
74674;SDS011;63200;48.810;12.352;2024-02-21T14:25:41;3.20;;;1.25;;
74674;SDS011;63200;48.810;12.352;2024-02-21T14:28:07;5.28;;;1.20;;
74674;SDS011;63200;48.810;12.352;2024-02-21T14:30:34;2.55;;;1.00;;